Terminal Aerodrome Forecast
Issued by NWS

Home | Current Version | Previous Version | Text Only | Print | Product List | Glossary On
Versions: 1 2 3 4 5 6 7 8 9 10 11 12 13 14 15 16 17 18
000
FTUS43 KILX 240500
TAFCMI
TAF
KCMI 240520Z 2406/2506 10011KT P6SM SCT120
     FM241700 14016G26KT P6SM BKN100
     FM242300 16018G28KT P6SM VCSH OVC070
     FM250200 14012G20KT 4SM -RA VCTS OVC040CB=

USA.gov is the U.S. government's official web portal to all federal, state and local government web resources and services.